createdAt,value
2019-03-20T00:01:13.760Z,1.77
2019-03-20T00:03:44.514Z,1.73
2019-03-20T00:06:15.312Z,1.60
2019-03-20T00:08:45.987Z,1.80
2019-03-20T00:11:17.156Z,1.77
2019-03-20T00:13:48.123Z,1.60
2019-03-20T00:16:18.863Z,1.80
2019-03-20T00:18:49.778Z,1.40
2019-03-20T00:21:22.338Z,1.83
2019-03-20T00:23:53.319Z,1.73
2019-03-20T00:26:24.054Z,1.80
2019-03-20T00:28:55.574Z,1.77
2019-03-20T00:31:26.346Z,1.50
2019-03-20T00:33:57.195Z,1.60
2019-03-20T00:36:28.442Z,1.77
2019-03-20T00:38:59.382Z,1.20
2019-03-20T00:41:30.014Z,1.50
2019-03-20T00:44:00.853Z,1.63
2019-03-20T00:46:31.570Z,1.37
2019-03-20T00:49:02.392Z,1.47
2019-03-20T00:51:33.454Z,1.33
2019-03-20T00:54:04.166Z,1.87
2019-03-20T00:56:35.196Z,1.50
2019-03-20T00:59:05.802Z,1.50
2019-03-20T01:01:41.211Z,1.20
2019-03-20T01:04:11.811Z,1.80
2019-03-20T01:06:42.494Z,1.33
2019-03-20T01:09:15.174Z,1.50
2019-03-20T01:11:45.886Z,1.23
2019-03-20T01:14:16.367Z,1.40
2019-03-20T01:16:47.702Z,1.03
2019-03-20T01:19:18.923Z,1.30
2019-03-20T01:21:49.742Z,1.63
2019-03-20T01:24:20.563Z,1.33
2019-03-20T01:26:51.491Z,1.37
2019-03-20T01:29:22.540Z,1.33
2019-03-20T01:31:54.633Z,1.10
2019-03-20T01:34:25.671Z,1.20
2019-03-20T01:36:56.622Z,1.00
2019-03-20T01:39:27.219Z,1.23
2019-03-20T01:41:57.748Z,1.40
2019-03-20T01:44:28.799Z,1.10
2019-03-20T01:46:59.594Z,1.10
2019-03-20T01:49:30.486Z,1.33
2019-03-20T01:52:01.642Z,1.10
2019-03-20T01:54:32.770Z,1.10
2019-03-20T01:57:03.830Z,1.00
2019-03-20T01:59:34.518Z,1.10
2019-03-20T02:02:06.130Z,1.10
2019-03-20T02:04:37.093Z,0.97
2019-03-20T02:07:07.822Z,1.00
2019-03-20T02:09:38.758Z,0.90
2019-03-20T02:12:09.794Z,0.93
2019-03-20T02:14:40.494Z,0.90
2019-03-20T02:17:11.578Z,0.90
2019-03-20T02:19:42.382Z,1.20
2019-03-20T02:22:13.567Z,0.80
2019-03-20T02:24:44.105Z,1.10
2019-03-20T02:27:14.810Z,1.03
2019-03-20T02:29:46.034Z,1.00
2019-03-20T02:32:16.684Z,1.10
2019-03-20T02:34:47.411Z,0.80
2019-03-20T02:37:18.235Z,0.70
2019-03-20T02:39:49.083Z,0.90
2019-03-20T02:42:19.678Z,1.07
2019-03-20T02:44:50.657Z,0.83
2019-03-20T02:47:21.377Z,0.80
2019-03-20T02:49:52.228Z,0.80
2019-03-20T02:52:23.264Z,1.10
2019-03-20T02:54:54.123Z,0.80
2019-03-20T02:57:24.739Z,0.90
2019-03-20T02:59:55.243Z,0.80
2019-03-20T03:02:26.363Z,0.70
2019-03-20T03:04:57.082Z,0.93
2019-03-20T03:07:27.740Z,0.80
2019-03-20T03:09:58.721Z,0.93
2019-03-20T03:12:30.053Z,0.97
2019-03-20T03:15:00.700Z,1.00
2019-03-20T03:17:31.890Z,1.13
2019-03-20T03:20:02.536Z,0.87
2019-03-20T03:22:34.523Z,0.90
2019-03-20T03:25:05.820Z,0.97
2019-03-20T03:27:36.746Z,0.80
2019-03-20T03:30:07.813Z,1.00
2019-03-20T03:32:38.605Z,0.87
2019-03-20T03:35:15.531Z,0.67
2019-03-20T03:37:41.899Z,0.70
2019-03-20T03:40:12.850Z,1.10
2019-03-20T03:42:43.990Z,0.80
2019-03-20T03:45:18.551Z,1.00
2019-03-20T03:47:49.396Z,0.80
2019-03-20T03:50:21.473Z,0.90
2019-03-20T03:52:52.297Z,1.00
2019-03-20T03:55:23.406Z,1.17
2019-03-20T03:57:54.264Z,1.10
2019-03-20T04:00:25.387Z,1.10
2019-03-20T04:02:56.000Z,0.93
2019-03-20T04:05:27.134Z,0.63
2019-03-20T04:07:58.209Z,0.80
2019-03-20T04:10:29.263Z,0.87
2019-03-20T04:13:00.195Z,1.00
2019-03-20T04:15:30.929Z,0.83
2019-03-20T04:18:01.664Z,0.90
2019-03-20T04:20:33.629Z,0.83
2019-03-20T04:23:04.298Z,0.80
2019-03-20T04:25:35.300Z,0.80
2019-03-20T04:28:05.903Z,0.90
2019-03-20T04:30:36.887Z,0.80
2019-03-20T04:33:07.622Z,1.23
2019-03-20T04:35:38.669Z,1.30
2019-03-20T04:38:09.751Z,1.23
2019-03-20T04:40:40.915Z,0.80
2019-03-20T04:43:11.670Z,0.83
2019-03-20T04:45:42.625Z,1.10
2019-03-20T04:48:13.664Z,1.03
2019-03-20T04:50:44.335Z,1.20
2019-03-20T04:53:15.462Z,0.93
2019-03-20T04:55:46.203Z,0.90
2019-03-20T04:58:17.119Z,1.07
2019-03-20T05:00:47.887Z,1.00
2019-03-20T05:03:18.795Z,1.30
2019-03-20T05:05:49.607Z,0.70
2019-03-20T05:08:20.208Z,1.00
2019-03-20T05:10:51.308Z,1.03
2019-03-20T05:13:22.109Z,1.20
2019-03-20T05:15:52.726Z,1.10
2019-03-20T05:18:23.917Z,0.67
2019-03-20T05:20:54.977Z,1.00
2019-03-20T05:23:25.611Z,0.93
2019-03-20T05:25:56.567Z,1.00
2019-03-20T05:28:27.216Z,1.23
2019-03-20T05:30:58.310Z,1.03
2019-03-20T05:33:29.421Z,1.10
2019-03-20T05:36:00.083Z,0.80
2019-03-20T05:38:31.030Z,1.23
2019-03-20T05:41:01.814Z,1.10
2019-03-20T05:43:32.535Z,1.10
2019-03-20T05:46:03.251Z,1.50
2019-03-20T05:48:34.469Z,1.00
2019-03-20T05:51:05.378Z,0.83
2019-03-20T05:53:36.422Z,1.00
2019-03-20T05:56:07.526Z,1.03
2019-03-20T05:58:38.216Z,1.00
2019-03-20T06:01:08.963Z,1.00
2019-03-20T06:03:39.851Z,1.00
2019-03-20T06:06:10.686Z,0.93
2019-03-20T06:08:41.466Z,1.03
2019-03-20T06:11:12.519Z,1.10
2019-03-20T06:13:43.434Z,1.17
2019-03-20T06:16:14.599Z,1.20
2019-03-20T06:18:46.559Z,1.10
2019-03-20T06:21:17.341Z,1.27
2019-03-20T06:23:48.027Z,1.20
2019-03-20T06:26:19.123Z,1.10
2019-03-20T06:28:49.801Z,0.87
2019-03-20T06:31:21.196Z,1.50
2019-03-20T06:33:52.011Z,1.43
2019-03-20T06:36:22.687Z,1.03
2019-03-20T06:38:53.398Z,1.33
2019-03-20T06:41:27.000Z,1.30
2019-03-20T06:43:57.998Z,1.50
2019-03-20T06:46:29.242Z,1.40
2019-03-20T06:48:59.890Z,1.33
2019-03-20T06:51:31.053Z,1.40
2019-03-20T06:54:02.021Z,1.20
2019-03-20T06:56:33.159Z,1.27
2019-03-20T06:59:39.715Z,1.40
2019-03-20T07:02:10.758Z,1.37
2019-03-20T07:05:09.980Z,1.43
2019-03-20T07:07:44.426Z,1.30
2019-03-20T07:10:37.359Z,1.23
2019-03-20T07:13:08.278Z,1.57
2019-03-20T07:15:40.603Z,1.90
2019-03-20T07:18:11.674Z,1.40
2019-03-20T07:20:44.350Z,1.70
2019-03-20T07:23:15.566Z,1.43
2019-03-20T07:25:46.667Z,2.03
2019-03-20T07:28:17.363Z,1.57
2019-03-20T07:30:48.594Z,1.67
2019-03-20T07:33:19.762Z,1.40
2019-03-20T07:35:50.475Z,1.80
2019-03-20T07:38:22.120Z,1.50
2019-03-20T07:40:53.024Z,1.90
2019-03-20T07:43:23.914Z,1.70
2019-03-20T07:45:54.942Z,1.57
2019-03-20T07:48:26.483Z,1.50
2019-03-20T07:50:57.469Z,1.70
2019-03-20T07:53:28.169Z,1.67
2019-03-20T07:55:59.539Z,1.63
2019-03-20T07:58:30.622Z,1.37
2019-03-20T08:01:01.198Z,1.70
2019-03-20T08:03:32.059Z,1.83
2019-03-20T08:06:03.869Z,1.80
2019-03-20T08:08:34.898Z,1.67
2019-03-20T08:11:06.179Z,1.80
2019-03-20T08:13:37.003Z,1.73
2019-03-20T08:16:07.600Z,1.73
2019-03-20T08:18:38.075Z,2.30
2019-03-20T08:21:09.045Z,1.90
2019-03-20T08:23:39.760Z,1.87
2019-03-20T08:26:10.849Z,2.30
2019-03-20T08:28:42.408Z,2.00
2019-03-20T08:31:13.163Z,2.17
2019-03-20T08:33:44.067Z,2.30
2019-03-20T08:36:14.843Z,2.40
2019-03-20T08:38:45.470Z,2.83
2019-03-20T08:41:16.369Z,2.10
2019-03-20T08:43:47.251Z,2.60
2019-03-20T08:46:17.904Z,2.10
2019-03-20T08:48:48.800Z,2.10
2019-03-20T08:51:19.548Z,2.40
2019-03-20T08:53:50.132Z,2.47
2019-03-20T08:56:21.146Z,2.37
2019-03-20T08:58:52.352Z,2.30
2019-03-20T09:01:28.635Z,2.67
2019-03-20T09:03:55.742Z,2.60
2019-03-20T09:06:26.882Z,3.30
2019-03-20T09:08:57.683Z,3.00
2019-03-20T09:11:28.668Z,2.60
2019-03-20T09:13:59.843Z,3.17
2019-03-20T09:16:31.178Z,2.90
2019-03-20T09:19:01.842Z,2.87
2019-03-20T09:21:32.632Z,3.07
2019-03-20T09:24:03.675Z,2.73
2019-03-20T09:26:34.926Z,2.70
2019-03-20T09:29:06.292Z,2.70
2019-03-20T09:31:37.170Z,3.07
2019-03-20T09:34:08.022Z,2.90
2019-03-20T09:36:43.362Z,3.03
2019-03-20T09:39:11.378Z,3.07
2019-03-20T09:41:42.010Z,3.20
2019-03-20T09:44:13.162Z,3.00
2019-03-20T09:46:44.042Z,2.57
2019-03-20T09:49:14.940Z,3.07
2019-03-20T09:51:45.934Z,3.07
2019-03-20T09:54:16.687Z,3.03
2019-03-20T09:56:47.406Z,3.20
2019-03-20T09:59:19.958Z,2.97
2019-03-20T10:01:50.672Z,2.80
2019-03-20T10:04:21.660Z,2.50
2019-03-20T10:06:53.806Z,2.90
2019-03-20T10:09:24.469Z,2.80
2019-03-20T10:11:57.482Z,2.80
2019-03-20T10:14:28.491Z,2.43
2019-03-20T10:16:59.574Z,2.93
2019-03-20T10:19:30.230Z,3.10
2019-03-20T10:22:01.219Z,2.50
2019-03-20T10:24:32.458Z,2.70
2019-03-20T10:27:03.571Z,2.40
2019-03-20T10:29:35.581Z,2.60
2019-03-20T10:32:06.370Z,2.70
2019-03-20T10:34:39.647Z,2.80
2019-03-20T10:37:09.831Z,2.50
2019-03-20T10:39:40.747Z,2.70
2019-03-20T10:42:11.507Z,2.23
2019-03-20T10:44:42.557Z,2.20
2019-03-20T10:47:13.454Z,2.50
2019-03-20T10:49:44.516Z,1.80
2019-03-20T10:52:15.405Z,1.80
2019-03-20T10:54:45.967Z,2.20
2019-03-20T10:57:17.939Z,1.80
2019-03-20T10:59:48.651Z,2.10
2019-03-20T11:02:19.926Z,1.70
2019-03-20T11:04:50.538Z,1.70
2019-03-20T11:07:21.511Z,1.70
2019-03-20T11:09:52.460Z,1.90
2019-03-20T11:12:23.164Z,1.73
2019-03-20T11:14:53.886Z,1.90
2019-03-20T11:17:25.042Z,1.70
2019-03-20T11:19:56.388Z,1.70
2019-03-20T11:22:27.258Z,1.93
2019-03-20T11:24:59.181Z,1.80
2019-03-20T11:27:33.114Z,1.90
2019-03-20T11:30:03.144Z,1.70
2019-03-20T11:32:33.817Z,1.90
2019-03-20T11:35:04.948Z,1.73
2019-03-20T11:37:35.666Z,1.80
2019-03-20T11:40:08.609Z,2.00
2019-03-20T11:42:40.817Z,2.13
2019-03-20T11:45:11.936Z,1.77
2019-03-20T11:47:43.023Z,1.90
2019-03-20T11:50:16.914Z,2.00
2019-03-20T11:52:47.727Z,1.70
2019-03-20T11:55:18.805Z,1.97
2019-03-20T11:57:49.770Z,1.97
2019-03-20T12:00:20.843Z,1.70
2019-03-20T12:02:51.823Z,1.90
2019-03-20T12:05:22.866Z,1.80
2019-03-20T12:07:53.894Z,1.60
2019-03-20T12:10:25.107Z,1.20
2019-03-20T12:12:56.251Z,1.70
2019-03-20T12:15:27.986Z,1.70
2019-03-20T12:17:58.675Z,1.40
2019-03-20T12:20:29.913Z,1.40
2019-03-20T12:23:01.157Z,1.50
2019-03-20T12:25:31.907Z,1.50
2019-03-20T12:28:02.635Z,1.47
2019-03-20T12:30:33.887Z,1.53
2019-03-20T12:33:05.337Z,1.30
2019-03-20T12:35:36.275Z,1.70
2019-03-20T12:38:14.310Z,1.67
2019-03-20T12:40:39.794Z,1.40
2019-03-20T12:43:10.850Z,1.60
2019-03-20T12:45:41.845Z,1.20
2019-03-20T12:48:12.606Z,1.60
2019-03-20T12:50:43.474Z,1.70
2019-03-20T12:53:14.937Z,1.50
2019-03-20T12:55:45.714Z,1.47
2019-03-20T12:58:16.698Z,1.40
2019-03-20T13:03:18.291Z,1.20
2019-03-20T13:05:49.195Z,1.10
2019-03-20T13:08:20.197Z,1.40
2019-03-20T13:10:51.821Z,1.60
2019-03-20T13:13:22.546Z,1.30
2019-03-20T13:15:54.650Z,1.40
2019-03-20T13:18:25.210Z,1.23
2019-03-20T13:20:56.012Z,1.40
2019-03-20T13:23:28.940Z,1.33
2019-03-20T13:26:00.939Z,1.40
2019-03-20T13:28:32.698Z,1.40
2019-03-20T13:31:07.575Z,1.30
2019-03-20T13:33:41.046Z,1.40
2019-03-20T13:36:11.933Z,1.60
2019-03-20T13:38:43.142Z,1.60
2019-03-20T13:41:13.692Z,1.40
2019-03-20T13:43:44.335Z,1.07
2019-03-20T13:46:15.226Z,1.50
2019-03-20T13:48:46.119Z,1.40
2019-03-20T13:51:17.296Z,1.50
2019-03-20T13:53:48.215Z,1.50
2019-03-20T13:56:18.886Z,1.23
2019-03-20T13:58:52.165Z,1.43
2019-03-20T14:01:23.222Z,1.60
2019-03-20T14:03:53.766Z,1.30
2019-03-20T14:06:24.831Z,1.30
2019-03-20T14:08:55.675Z,1.40
2019-03-20T14:11:26.722Z,1.30
2019-03-20T14:13:57.726Z,1.20
2019-03-20T14:16:28.702Z,1.30
2019-03-20T14:18:59.860Z,1.20
2019-03-20T14:21:30.574Z,1.30
2019-03-20T14:24:01.637Z,1.20
2019-03-20T14:26:32.460Z,1.30
2019-03-20T14:29:03.537Z,1.70
2019-03-20T14:31:34.129Z,1.20
2019-03-20T14:34:05.003Z,1.63
2019-03-20T14:36:35.637Z,1.20
2019-03-20T14:39:08.777Z,1.37
2019-03-20T14:41:39.883Z,1.70
2019-03-20T14:44:10.556Z,1.43
2019-03-20T14:46:41.862Z,1.30
2019-03-20T14:49:12.538Z,1.20
2019-03-20T14:51:43.593Z,1.37
2019-03-20T14:54:14.638Z,1.30
2019-03-20T14:56:45.362Z,1.17
2019-03-20T14:59:16.132Z,1.13
2019-03-20T15:01:47.154Z,1.30
2019-03-20T15:04:18.105Z,1.50
2019-03-20T15:06:48.911Z,1.30
2019-03-20T15:09:19.605Z,1.63
2019-03-20T15:11:50.246Z,1.10
2019-03-20T15:14:21.806Z,1.33
2019-03-20T15:16:52.566Z,1.27
2019-03-20T15:19:23.754Z,1.30
2019-03-20T15:21:54.796Z,1.13
2019-03-20T15:24:26.453Z,1.30
2019-03-20T15:26:56.927Z,1.17
2019-03-20T15:29:27.946Z,1.20
2019-03-20T15:31:58.602Z,1.03
2019-03-20T15:34:29.373Z,1.27
2019-03-20T15:37:00.255Z,1.40
2019-03-20T15:39:31.259Z,1.20
2019-03-20T15:42:02.175Z,1.00
2019-03-20T15:44:33.072Z,1.10
2019-03-20T15:47:04.066Z,1.17
2019-03-20T15:49:34.974Z,1.17
2019-03-20T15:52:06.087Z,0.90
2019-03-20T15:54:36.773Z,1.27
2019-03-20T15:57:07.829Z,0.90
2019-03-20T15:59:38.630Z,1.00
2019-03-20T16:02:09.713Z,0.80
2019-03-20T16:04:40.405Z,1.10
2019-03-20T16:07:11.214Z,1.00
2019-03-20T16:09:42.534Z,1.00
2019-03-20T16:12:13.334Z,1.27
2019-03-20T16:14:44.350Z,0.97
2019-03-20T16:17:15.222Z,1.00
2019-03-20T16:19:45.963Z,0.90
2019-03-20T16:22:16.631Z,1.03
2019-03-20T16:24:47.420Z,0.90
2019-03-20T16:27:18.386Z,0.90
2019-03-20T16:29:49.146Z,1.20
2019-03-20T16:32:20.144Z,0.90
2019-03-20T16:34:50.894Z,1.17
2019-03-20T16:37:21.852Z,1.10
2019-03-20T16:39:52.747Z,1.00
2019-03-20T16:42:23.714Z,1.13
2019-03-20T16:44:54.536Z,1.27
2019-03-20T16:47:26.823Z,0.97
2019-03-20T16:49:57.608Z,0.97
2019-03-20T16:52:28.637Z,1.10
2019-03-20T16:54:59.341Z,1.10
2019-03-20T16:57:30.158Z,0.90
2019-03-20T17:00:01.081Z,1.13
2019-03-20T17:02:32.258Z,0.90
2019-03-20T17:05:04.337Z,0.97
2019-03-20T17:07:35.115Z,0.90
2019-03-20T17:10:09.690Z,1.00
2019-03-20T17:12:40.610Z,1.00
2019-03-20T17:15:15.172Z,1.20
2019-03-20T17:17:46.083Z,1.10
2019-03-20T17:20:17.323Z,1.20
2019-03-20T17:22:48.514Z,0.97
2019-03-20T17:25:22.650Z,1.07
2019-03-20T17:27:53.844Z,1.17
2019-03-20T17:30:26.531Z,0.87
2019-03-20T17:32:57.483Z,0.80
2019-03-20T17:35:29.414Z,1.03
2019-03-20T17:38:00.174Z,1.10
2019-03-20T17:40:30.824Z,0.90
2019-03-20T17:43:01.571Z,0.97
2019-03-20T17:45:33.084Z,0.83
2019-03-20T17:48:03.866Z,0.90
2019-03-20T17:50:35.014Z,0.87
2019-03-20T17:53:06.073Z,1.00
2019-03-20T17:55:36.935Z,1.00
2019-03-20T17:58:07.958Z,0.60
2019-03-20T18:00:41.154Z,1.20
2019-03-20T18:03:11.908Z,0.77
2019-03-20T18:05:42.689Z,1.00
2019-03-20T18:08:13.640Z,0.80
2019-03-20T18:10:44.462Z,0.90
2019-03-20T18:13:15.652Z,1.20
2019-03-20T18:15:46.413Z,1.13
2019-03-20T18:18:18.521Z,1.13
2019-03-20T18:20:48.951Z,0.87
2019-03-20T18:23:20.360Z,0.70
2019-03-20T18:25:51.197Z,0.70
2019-03-20T18:28:22.022Z,0.90
2019-03-20T18:30:52.950Z,0.97
2019-03-20T18:33:23.677Z,1.10
2019-03-20T18:35:54.375Z,0.90
2019-03-20T18:38:26.062Z,1.00
2019-03-20T18:40:56.566Z,0.90
2019-03-20T18:43:27.531Z,1.30
2019-03-20T18:45:59.374Z,1.20
2019-03-20T18:48:30.011Z,1.33
2019-03-20T18:51:01.129Z,0.80
2019-03-20T18:53:32.133Z,1.10
2019-03-20T18:56:03.080Z,0.97
2019-03-20T18:58:33.650Z,1.10
2019-03-20T19:01:04.758Z,1.00
2019-03-20T19:03:36.718Z,1.07
2019-03-20T19:06:10.135Z,1.10
2019-03-20T19:08:41.146Z,1.17
2019-03-20T19:11:11.854Z,1.00
2019-03-20T19:13:42.518Z,1.13
2019-03-20T19:16:13.472Z,1.10
2019-03-20T19:18:44.173Z,1.20
2019-03-20T19:21:15.334Z,0.83
2019-03-20T19:23:46.030Z,0.93
2019-03-20T19:26:17.111Z,0.90
2019-03-20T19:28:47.711Z,0.80
2019-03-20T19:31:18.760Z,0.87
2019-03-20T19:33:50.278Z,0.90
2019-03-20T19:36:20.932Z,0.80
2019-03-20T19:38:51.661Z,1.03
2019-03-20T19:41:22.276Z,1.00
2019-03-20T19:43:53.076Z,1.27
2019-03-20T19:46:24.429Z,1.47
2019-03-20T19:48:55.218Z,1.10
2019-03-20T19:51:26.082Z,1.10
2019-03-20T19:53:56.902Z,1.30
2019-03-20T19:56:27.572Z,0.90
2019-03-20T19:58:58.590Z,0.90
2019-03-20T20:01:29.503Z,0.97
2019-03-20T20:04:00.590Z,1.10
2019-03-20T20:06:31.167Z,0.80
2019-03-20T20:09:01.949Z,1.07
2019-03-20T20:11:33.598Z,1.00
2019-03-20T20:14:04.446Z,1.00
2019-03-20T20:16:35.407Z,1.10
2019-03-20T20:19:06.894Z,0.80
2019-03-20T20:21:37.420Z,1.10
2019-03-20T20:24:08.182Z,0.97
2019-03-20T20:26:39.290Z,1.00
2019-03-20T20:29:10.416Z,0.90
2019-03-20T20:31:41.172Z,1.00
2019-03-20T20:34:12.142Z,0.80
2019-03-20T20:36:43.206Z,0.67
2019-03-20T20:39:13.994Z,0.70
2019-03-20T20:41:44.844Z,0.70
2019-03-20T20:44:15.807Z,0.70
2019-03-20T20:46:46.681Z,0.80
2019-03-20T20:49:17.541Z,0.90
2019-03-20T20:51:48.578Z,1.00
2019-03-20T20:54:19.442Z,0.80
2019-03-20T20:56:50.618Z,0.90
2019-03-20T20:59:21.378Z,1.00
2019-03-20T21:01:52.548Z,0.93
2019-03-20T21:04:23.182Z,1.00
2019-03-20T21:06:53.916Z,0.90
2019-03-20T21:09:26.053Z,0.97
2019-03-20T21:11:57.043Z,1.10
2019-03-20T21:14:27.771Z,1.10
2019-03-20T21:16:59.855Z,1.07
2019-03-20T21:19:31.754Z,1.20
2019-03-20T21:22:40.698Z,0.90
2019-03-20T21:25:12.266Z,1.20
2019-03-20T21:28:22.022Z,0.90
2019-03-20T21:31:07.671Z,0.90
2019-03-20T21:34:31.385Z,0.90
2019-03-20T21:37:25.452Z,0.90
2019-03-20T21:39:56.935Z,1.07
2019-03-20T21:43:12.552Z,1.10
2019-03-20T21:46:03.814Z,1.07
2019-03-20T21:48:34.974Z,1.40
2019-03-20T21:51:14.320Z,0.90
2019-03-20T21:54:28.823Z,0.80
2019-03-20T21:57:52.269Z,0.90
2019-03-20T22:01:11.063Z,1.00
2019-03-20T22:03:43.814Z,1.17
2019-03-20T22:06:50.107Z,0.90
2019-03-20T22:10:15.107Z,1.00
2019-03-20T22:13:26.612Z,0.90
2019-03-20T22:16:40.458Z,0.83
2019-03-20T22:19:48.155Z,1.00
2019-03-20T22:22:54.739Z,0.80
2019-03-20T22:25:55.846Z,0.77
2019-03-20T22:28:58.738Z,0.80
2019-03-20T22:31:30.470Z,0.90
2019-03-20T22:34:36.898Z,0.83
2019-03-20T22:37:08.339Z,0.90
2019-03-20T22:40:27.465Z,0.87
2019-03-20T22:43:15.544Z,0.83
2019-03-20T22:46:36.712Z,0.93
2019-03-20T22:49:41.698Z,0.97
2019-03-20T22:52:47.774Z,0.80
2019-03-20T22:55:41.270Z,0.90
2019-03-20T22:58:42.940Z,0.90
2019-03-20T23:01:20.994Z,0.90
2019-03-20T23:03:57.015Z,0.77
2019-03-20T23:06:28.150Z,1.27
2019-03-20T23:08:59.458Z,0.80
2019-03-20T23:11:30.982Z,1.00
2019-03-20T23:14:02.166Z,1.00
2019-03-20T23:16:33.326Z,1.07
2019-03-20T23:19:04.879Z,1.00
2019-03-20T23:21:36.597Z,0.90
2019-03-20T23:24:07.724Z,1.10
2019-03-20T23:26:39.338Z,1.20
2019-03-20T23:29:12.095Z,1.00
2019-03-20T23:31:43.346Z,1.10
2019-03-20T23:34:15.926Z,1.17
2019-03-20T23:36:47.378Z,1.07
2019-03-20T23:39:18.538Z,1.10
2019-03-20T23:41:49.935Z,1.27
2019-03-20T23:44:21.399Z,1.30
2019-03-20T23:46:53.089Z,1.10
2019-03-20T23:49:24.906Z,0.80
2019-03-20T23:51:56.242Z,0.97
2019-03-20T23:54:48.630Z,1.10
2019-03-20T23:57:20.376Z,0.83
2019-03-20T23:59:52.316Z,1.13
